sensor_id;sensor_type;location;lat;lon;timestamp;temperature;humidity
13426;DHT22;6785;57.918;12.530;2022-11-24T00:00:49;3.20;99.90
13426;DHT22;6785;57.918;12.530;2022-11-24T00:03:16;3.20;99.90
13426;DHT22;6785;57.918;12.530;2022-11-24T00:05:43;3.20;99.90
13426;DHT22;6785;57.918;12.530;2022-11-24T00:08:11;3.20;99.90
13426;DHT22;6785;57.918;12.530;2022-11-24T00:10:38;3.20;99.90
13426;DHT22;6785;57.918;12.530;2022-11-24T00:13:05;3.20;99.90
13426;DHT22;6785;57.918;12.530;2022-11-24T00:15:32;3.20;99.90
13426;DHT22;6785;57.918;12.530;2022-11-24T00:17:59;3.20;99.90
13426;DHT22;6785;57.918;12.530;2022-11-24T00:20:25;3.10;99.90
13426;DHT22;6785;57.918;12.530;2022-11-24T00:22:52;3.10;99.90
13426;DHT22;6785;57.918;12.530;2022-11-24T00:25:21;3.10;99.90
13426;DHT22;6785;57.918;12.530;2022-11-24T00:27:48;3.10;99.90
13426;DHT22;6785;57.918;12.530;2022-11-24T00:30:15;3.10;99.90
13426;DHT22;6785;57.918;12.530;2022-11-24T00:32:42;3.00;99.90
13426;DHT22;6785;57.918;12.530;2022-11-24T00:35:08;3.10;99.90
13426;DHT22;6785;57.918;12.530;2022-11-24T00:37:35;3.10;99.90
13426;DHT22;6785;57.918;12.530;2022-11-24T00:40:02;3.00;99.90
13426;DHT22;6785;57.918;12.530;2022-11-24T00:42:31;3.00;99.90
13426;DHT22;6785;57.918;12.530;2022-11-24T00:44:57;3.00;99.90
13426;DHT22;6785;57.918;12.530;2022-11-24T00:47:24;3.00;99.90
13426;DHT22;6785;57.918;12.530;2022-11-24T00:49:53;3.00;99.90
13426;DHT22;6785;57.918;12.530;2022-11-24T00:52:20;3.00;99.90
13426;DHT22;6785;57.918;12.530;2022-11-24T00:54:46;3.10;99.90
13426;DHT22;6785;57.918;12.530;2022-11-24T00:57:13;3.10;99.90
13426;DHT22;6785;57.918;12.530;2022-11-24T00:59:41;3.10;99.90
13426;DHT22;6785;57.918;12.530;2022-11-24T01:02:08;3.10;99.90
13426;DHT22;6785;57.918;12.530;2022-11-24T01:04:35;3.20;99.90
13426;DHT22;6785;57.918;12.530;2022-11-24T01:07:01;3.20;99.90
13426;DHT22;6785;57.918;12.530;2022-11-24T01:09:28;3.20;99.90
13426;DHT22;6785;57.918;12.530;2022-11-24T01:11:55;3.20;99.90
13426;DHT22;6785;57.918;12.530;2022-11-24T01:14:29;3.20;99.90
13426;DHT22;6785;57.918;12.530;2022-11-24T01:17:02;3.20;99.90
13426;DHT22;6785;57.918;12.530;2022-11-24T01:19:29;3.30;99.90
13426;DHT22;6785;57.918;12.530;2022-11-24T01:21:55;3.30;99.90
13426;DHT22;6785;57.918;12.530;2022-11-24T01:24:22;3.40;99.90
13426;DHT22;6785;57.918;12.530;2022-11-24T01:26:49;3.40;99.90
13426;DHT22;6785;57.918;12.530;2022-11-24T01:29:16;3.40;99.90
13426;DHT22;6785;57.918;12.530;2022-11-24T01:31:43;3.40;99.90
13426;DHT22;6785;57.918;12.530;2022-11-24T01:34:11;3.50;99.90
13426;DHT22;6785;57.918;12.530;2022-11-24T01:36:38;3.50;99.90
13426;DHT22;6785;57.918;12.530;2022-11-24T01:39:05;3.50;99.90
13426;DHT22;6785;57.918;12.530;2022-11-24T01:41:32;3.60;99.90
13426;DHT22;6785;57.918;12.530;2022-11-24T01:43:59;3.60;99.90
13426;DHT22;6785;57.918;12.530;2022-11-24T01:46:28;3.60;99.90
13426;DHT22;6785;57.918;12.530;2022-11-24T01:49:01;3.60;99.90
13426;DHT22;6785;57.918;12.530;2022-11-24T01:51:32;3.60;99.90
13426;DHT22;6785;57.918;12.530;2022-11-24T01:54:02;3.70;99.90
13426;DHT22;6785;57.918;12.530;2022-11-24T01:56:30;3.60;99.90
13426;DHT22;6785;57.918;12.530;2022-11-24T01:59:00;3.70;99.90
13426;DHT22;6785;57.918;12.530;2022-11-24T02:01:28;3.70;99.90
13426;DHT22;6785;57.918;12.530;2022-11-24T02:03:56;3.70;99.90
13426;DHT22;6785;57.918;12.530;2022-11-24T02:06:26;3.70;99.90
13426;DHT22;6785;57.918;12.530;2022-11-24T02:08:57;3.70;99.90
13426;DHT22;6785;57.918;12.530;2022-11-24T02:11:29;3.70;99.90
13426;DHT22;6785;57.918;12.530;2022-11-24T02:14:02;3.70;99.90
13426;DHT22;6785;57.918;12.530;2022-11-24T02:16:30;3.70;99.90
13426;DHT22;6785;57.918;12.530;2022-11-24T02:18:59;3.70;99.90
13426;DHT22;6785;57.918;12.530;2022-11-24T02:21:26;3.70;99.90
13426;DHT22;6785;57.918;12.530;2022-11-24T02:24:00;3.70;99.90
13426;DHT22;6785;57.918;12.530;2022-11-24T02:26:38;3.70;99.90
13426;DHT22;6785;57.918;12.530;2022-11-24T02:29:05;3.70;99.90
13426;DHT22;6785;57.918;12.530;2022-11-24T02:31:33;3.70;99.90
13426;DHT22;6785;57.918;12.530;2022-11-24T02:33:59;3.70;99.90
13426;DHT22;6785;57.918;12.530;2022-11-24T02:36:26;3.70;99.90
13426;DHT22;6785;57.918;12.530;2022-11-24T02:38:53;3.60;99.90
13426;DHT22;6785;57.918;12.530;2022-11-24T02:41:21;3.70;99.90
13426;DHT22;6785;57.918;12.530;2022-11-24T02:43:55;3.70;99.90
13426;DHT22;6785;57.918;12.530;2022-11-24T02:46:22;3.70;99.90
13426;DHT22;6785;57.918;12.530;2022-11-24T02:48:49;3.70;99.90
13426;DHT22;6785;57.918;12.530;2022-11-24T02:51:16;3.70;99.90
13426;DHT22;6785;57.918;12.530;2022-11-24T02:53:43;3.70;99.90
13426;DHT22;6785;57.918;12.530;2022-11-24T02:56:10;3.70;99.90
13426;DHT22;6785;57.918;12.530;2022-11-24T02:58:37;3.70;99.90
13426;DHT22;6785;57.918;12.530;2022-11-24T03:01:05;3.70;99.90
13426;DHT22;6785;57.918;12.530;2022-11-24T03:03:32;3.70;99.90
13426;DHT22;6785;57.918;12.530;2022-11-24T03:05:59;3.70;99.90
13426;DHT22;6785;57.918;12.530;2022-11-24T03:08:26;3.70;99.90
13426;DHT22;6785;57.918;12.530;2022-11-24T03:10:52;3.70;99.90
13426;DHT22;6785;57.918;12.530;2022-11-24T03:13:19;3.70;99.90
13426;DHT22;6785;57.918;12.530;2022-11-24T03:15:46;3.70;99.90
13426;DHT22;6785;57.918;12.530;2022-11-24T03:18:14;3.60;99.90
13426;DHT22;6785;57.918;12.530;2022-11-24T03:20:41;3.60;99.90
13426;DHT22;6785;57.918;12.530;2022-11-24T03:23:08;3.60;99.90
13426;DHT22;6785;57.918;12.530;2022-11-24T03:25:35;3.60;99.90
13426;DHT22;6785;57.918;12.530;2022-11-24T03:28:02;3.60;99.90
13426;DHT22;6785;57.918;12.530;2022-11-24T03:30:29;3.70;99.90
13426;DHT22;6785;57.918;12.530;2022-11-24T03:32:56;3.70;99.90
13426;DHT22;6785;57.918;12.530;2022-11-24T03:35:24;3.70;99.90
13426;DHT22;6785;57.918;12.530;2022-11-24T03:37:51;3.70;99.90
13426;DHT22;6785;57.918;12.530;2022-11-24T03:40:18;3.70;99.90
13426;DHT22;6785;57.918;12.530;2022-11-24T03:42:44;3.70;99.90
13426;DHT22;6785;57.918;12.530;2022-11-24T03:45:12;3.70;99.90
13426;DHT22;6785;57.918;12.530;2022-11-24T03:47:38;3.70;99.90
13426;DHT22;6785;57.918;12.530;2022-11-24T03:50:06;3.70;99.90
13426;DHT22;6785;57.918;12.530;2022-11-24T03:52:34;3.70;99.90
13426;DHT22;6785;57.918;12.530;2022-11-24T03:55:01;3.70;99.90
13426;DHT22;6785;57.918;12.530;2022-11-24T03:57:27;3.60;99.90
13426;DHT22;6785;57.918;12.530;2022-11-24T03:59:54;3.70;99.90
13426;DHT22;6785;57.918;12.530;2022-11-24T04:02:21;3.70;99.90
13426;DHT22;6785;57.918;12.530;2022-11-24T04:04:48;3.70;99.90
13426;DHT22;6785;57.918;12.530;2022-11-24T04:07:17;3.70;99.90
13426;DHT22;6785;57.918;12.530;2022-11-24T04:09:45;3.70;99.90
13426;DHT22;6785;57.918;12.530;2022-11-24T04:12:12;3.70;99.90
13426;DHT22;6785;57.918;12.530;2022-11-24T04:14:56;3.80;99.90
13426;DHT22;6785;57.918;12.530;2022-11-24T04:17:23;3.80;99.90
13426;DHT22;6785;57.918;12.530;2022-11-24T04:19:49;3.80;99.90
13426;DHT22;6785;57.918;12.530;2022-11-24T04:22:16;3.80;99.90
13426;DHT22;6785;57.918;12.530;2022-11-24T04:24:44;3.80;99.90
13426;DHT22;6785;57.918;12.530;2022-11-24T04:27:11;3.80;99.90
13426;DHT22;6785;57.918;12.530;2022-11-24T04:29:38;3.80;99.90
13426;DHT22;6785;57.918;12.530;2022-11-24T04:32:05;3.80;99.90
13426;DHT22;6785;57.918;12.530;2022-11-24T04:34:33;3.80;99.90
13426;DHT22;6785;57.918;12.530;2022-11-24T04:37:00;3.80;99.90
13426;DHT22;6785;57.918;12.530;2022-11-24T04:39:27;3.80;99.90
13426;DHT22;6785;57.918;12.530;2022-11-24T04:41:55;3.80;99.90
13426;DHT22;6785;57.918;12.530;2022-11-24T04:44:21;3.90;99.90
13426;DHT22;6785;57.918;12.530;2022-11-24T04:46:48;3.80;99.90
13426;DHT22;6785;57.918;12.530;2022-11-24T04:49:15;3.90;99.90
13426;DHT22;6785;57.918;12.530;2022-11-24T04:51:42;3.80;99.90
13426;DHT22;6785;57.918;12.530;2022-11-24T04:54:11;3.80;99.90
13426;DHT22;6785;57.918;12.530;2022-11-24T04:56:38;3.80;99.90
13426;DHT22;6785;57.918;12.530;2022-11-24T04:59:10;3.80;99.90
13426;DHT22;6785;57.918;12.530;2022-11-24T05:01:37;3.80;99.90
13426;DHT22;6785;57.918;12.530;2022-11-24T05:04:04;3.80;99.90
13426;DHT22;6785;57.918;12.530;2022-11-24T05:06:31;3.80;99.90
13426;DHT22;6785;57.918;12.530;2022-11-24T05:08:58;3.80;99.90
13426;DHT22;6785;57.918;12.530;2022-11-24T05:11:24;3.90;99.90
13426;DHT22;6785;57.918;12.530;2022-11-24T05:13:52;3.80;99.90
13426;DHT22;6785;57.918;12.530;2022-11-24T05:16:20;3.80;99.90
13426;DHT22;6785;57.918;12.530;2022-11-24T05:18:47;3.80;99.90
13426;DHT22;6785;57.918;12.530;2022-11-24T05:21:13;3.90;99.90
13426;DHT22;6785;57.918;12.530;2022-11-24T05:23:40;3.90;99.90
13426;DHT22;6785;57.918;12.530;2022-11-24T05:26:07;3.90;99.90
13426;DHT22;6785;57.918;12.530;2022-11-24T05:28:34;3.90;99.90
13426;DHT22;6785;57.918;12.530;2022-11-24T05:31:01;3.90;99.90
13426;DHT22;6785;57.918;12.530;2022-11-24T05:33:30;3.90;99.90
13426;DHT22;6785;57.918;12.530;2022-11-24T05:36:00;3.80;99.90
13426;DHT22;6785;57.918;12.530;2022-11-24T05:38:27;3.90;99.90
13426;DHT22;6785;57.918;12.530;2022-11-24T05:40:59;3.90;99.90
13426;DHT22;6785;57.918;12.530;2022-11-24T05:43:26;3.90;99.90
13426;DHT22;6785;57.918;12.530;2022-11-24T05:45:52;4.00;99.90
13426;DHT22;6785;57.918;12.530;2022-11-24T05:48:19;4.00;99.90
13426;DHT22;6785;57.918;12.530;2022-11-24T05:50:53;4.00;99.90
13426;DHT22;6785;57.918;12.530;2022-11-24T05:53:20;3.90;99.90
13426;DHT22;6785;57.918;12.530;2022-11-24T05:55:47;3.90;99.90
13426;DHT22;6785;57.918;12.530;2022-11-24T05:58:14;4.00;99.90
13426;DHT22;6785;57.918;12.530;2022-11-24T06:00:41;4.00;99.90
13426;DHT22;6785;57.918;12.530;2022-11-24T06:03:08;4.00;99.90
13426;DHT22;6785;57.918;12.530;2022-11-24T06:05:36;4.00;99.90
13426;DHT22;6785;57.918;12.530;2022-11-24T06:08:04;4.00;99.90
13426;DHT22;6785;57.918;12.530;2022-11-24T06:10:31;4.00;99.90
13426;DHT22;6785;57.918;12.530;2022-11-24T06:12:58;4.00;99.90
13426;DHT22;6785;57.918;12.530;2022-11-24T06:15:24;4.10;99.90
13426;DHT22;6785;57.918;12.530;2022-11-24T06:17:52;4.10;99.90
13426;DHT22;6785;57.918;12.530;2022-11-24T06:20:20;4.10;99.90
13426;DHT22;6785;57.918;12.530;2022-11-24T06:22:46;4.10;99.90
13426;DHT22;6785;57.918;12.530;2022-11-24T06:25:15;4.00;99.90
13426;DHT22;6785;57.918;12.530;2022-11-24T06:27:43;4.10;99.90
13426;DHT22;6785;57.918;12.530;2022-11-24T06:30:11;4.10;99.90
13426;DHT22;6785;57.918;12.530;2022-11-24T06:32:38;4.20;99.90
13426;DHT22;6785;57.918;12.530;2022-11-24T06:35:10;4.20;99.90
13426;DHT22;6785;57.918;12.530;2022-11-24T06:37:36;4.20;99.90
13426;DHT22;6785;57.918;12.530;2022-11-24T06:40:04;4.20;99.90
13426;DHT22;6785;57.918;12.530;2022-11-24T06:42:34;4.20;99.90
13426;DHT22;6785;57.918;12.530;2022-11-24T06:45:00;4.20;99.90
13426;DHT22;6785;57.918;12.530;2022-11-24T06:47:27;4.10;99.90
13426;DHT22;6785;57.918;12.530;2022-11-24T06:49:54;4.10;99.90
13426;DHT22;6785;57.918;12.530;2022-11-24T06:52:21;4.20;99.90
13426;DHT22;6785;57.918;12.530;2022-11-24T06:54:47;4.20;99.90
13426;DHT22;6785;57.918;12.530;2022-11-24T06:57:14;4.20;99.90
13426;DHT22;6785;57.918;12.530;2022-11-24T06:59:42;4.20;99.90
13426;DHT22;6785;57.918;12.530;2022-11-24T07:02:09;4.20;99.90
13426;DHT22;6785;57.918;12.530;2022-11-24T07:04:36;4.20;99.90
13426;DHT22;6785;57.918;12.530;2022-11-24T07:07:03;4.20;99.90
13426;DHT22;6785;57.918;12.530;2022-11-24T07:09:30;4.20;99.90
13426;DHT22;6785;57.918;12.530;2022-11-24T07:11:56;4.20;99.90
13426;DHT22;6785;57.918;12.530;2022-11-24T07:14:23;4.20;99.90
13426;DHT22;6785;57.918;12.530;2022-11-24T07:16:51;4.20;99.90
13426;DHT22;6785;57.918;12.530;2022-11-24T07:19:18;4.20;99.90
13426;DHT22;6785;57.918;12.530;2022-11-24T07:21:45;4.20;99.90
13426;DHT22;6785;57.918;12.530;2022-11-24T07:24:12;4.20;99.90
13426;DHT22;6785;57.918;12.530;2022-11-24T07:26:39;4.20;99.90
13426;DHT22;6785;57.918;12.530;2022-11-24T07:29:06;4.20;99.90
13426;DHT22;6785;57.918;12.530;2022-11-24T07:31:32;4.20;99.90
13426;DHT22;6785;57.918;12.530;2022-11-24T07:34:01;4.20;99.90
13426;DHT22;6785;57.918;12.530;2022-11-24T07:36:28;4.30;99.90
13426;DHT22;6785;57.918;12.530;2022-11-24T07:38:54;4.20;99.90
13426;DHT22;6785;57.918;12.530;2022-11-24T07:41:21;4.20;99.90
13426;DHT22;6785;57.918;12.530;2022-11-24T07:43:48;4.20;99.90
13426;DHT22;6785;57.918;12.530;2022-11-24T07:46:18;4.30;99.90
13426;DHT22;6785;57.918;12.530;2022-11-24T07:48:45;4.30;99.90
13426;DHT22;6785;57.918;12.530;2022-11-24T07:51:13;4.30;99.90
13426;DHT22;6785;57.918;12.530;2022-11-24T07:53:41;4.30;99.90
13426;DHT22;6785;57.918;12.530;2022-11-24T07:56:08;4.30;99.90
13426;DHT22;6785;57.918;12.530;2022-11-24T07:58:36;4.30;99.90
13426;DHT22;6785;57.918;12.530;2022-11-24T08:01:11;4.30;99.90
13426;DHT22;6785;57.918;12.530;2022-11-24T08:03:38;4.30;99.90
13426;DHT22;6785;57.918;12.530;2022-11-24T08:06:06;4.40;99.90
13426;DHT22;6785;57.918;12.530;2022-11-24T08:08:34;4.40;99.90
13426;DHT22;6785;57.918;12.530;2022-11-24T08:11:05;4.40;99.90
13426;DHT22;6785;57.918;12.530;2022-11-24T08:13:32;4.40;99.90
13426;DHT22;6785;57.918;12.530;2022-11-24T08:16:03;4.50;99.90
13426;DHT22;6785;57.918;12.530;2022-11-24T08:18:30;4.40;99.90
13426;DHT22;6785;57.918;12.530;2022-11-24T08:20:57;4.50;99.90
13426;DHT22;6785;57.918;12.530;2022-11-24T08:23:24;4.50;99.90
13426;DHT22;6785;57.918;12.530;2022-11-24T08:25:53;4.50;99.90
13426;DHT22;6785;57.918;12.530;2022-11-24T08:28:21;4.50;99.90
13426;DHT22;6785;57.918;12.530;2022-11-24T08:30:48;4.50;99.90
13426;DHT22;6785;57.918;12.530;2022-11-24T08:33:15;4.60;99.90
13426;DHT22;6785;57.918;12.530;2022-11-24T08:35:41;4.60;99.90
13426;DHT22;6785;57.918;12.530;2022-11-24T08:38:08;4.60;99.90
13426;DHT22;6785;57.918;12.530;2022-11-24T08:40:35;4.60;99.90
13426;DHT22;6785;57.918;12.530;2022-11-24T08:43:03;4.60;99.90
13426;DHT22;6785;57.918;12.530;2022-11-24T08:45:30;4.60;99.90
13426;DHT22;6785;57.918;12.530;2022-11-24T08:47:57;4.60;99.90
13426;DHT22;6785;57.918;12.530;2022-11-24T08:50:24;4.70;99.90
13426;DHT22;6785;57.918;12.530;2022-11-24T08:52:51;4.60;99.90
13426;DHT22;6785;57.918;12.530;2022-11-24T08:55:18;4.70;99.90
13426;DHT22;6785;57.918;12.530;2022-11-24T08:57:45;4.70;99.90
13426;DHT22;6785;57.918;12.530;2022-11-24T09:00:14;4.70;99.90
13426;DHT22;6785;57.918;12.530;2022-11-24T09:02:52;4.70;99.90
13426;DHT22;6785;57.918;12.530;2022-11-24T09:05:19;4.80;99.90
13426;DHT22;6785;57.918;12.530;2022-11-24T09:07:46;4.70;99.90
13426;DHT22;6785;57.918;12.530;2022-11-24T09:10:13;4.80;99.90
13426;DHT22;6785;57.918;12.530;2022-11-24T09:12:40;4.80;99.90
13426;DHT22;6785;57.918;12.530;2022-11-24T09:15:07;4.80;99.90
13426;DHT22;6785;57.918;12.530;2022-11-24T09:17:35;4.80;99.90
13426;DHT22;6785;57.918;12.530;2022-11-24T09:20:02;4.90;99.90
13426;DHT22;6785;57.918;12.530;2022-11-24T09:22:30;5.00;99.90
13426;DHT22;6785;57.918;12.530;2022-11-24T09:24:56;5.00;99.90
13426;DHT22;6785;57.918;12.530;2022-11-24T09:27:23;5.00;99.90
13426;DHT22;6785;57.918;12.530;2022-11-24T09:29:50;5.00;99.90
13426;DHT22;6785;57.918;12.530;2022-11-24T09:32:17;5.00;99.90
13426;DHT22;6785;57.918;12.530;2022-11-24T09:34:45;5.10;99.90
13426;DHT22;6785;57.918;12.530;2022-11-24T09:37:12;5.10;99.90
13426;DHT22;6785;57.918;12.530;2022-11-24T09:39:39;5.10;99.90
13426;DHT22;6785;57.918;12.530;2022-11-24T09:42:11;5.10;99.90
13426;DHT22;6785;57.918;12.530;2022-11-24T09:44:52;5.10;99.90
13426;DHT22;6785;57.918;12.530;2022-11-24T09:47:31;5.10;99.90
13426;DHT22;6785;57.918;12.530;2022-11-24T09:50:04;5.10;99.90
13426;DHT22;6785;57.918;12.530;2022-11-24T09:52:38;5.10;99.90
13426;DHT22;6785;57.918;12.530;2022-11-24T09:55:20;5.10;99.90
13426;DHT22;6785;57.918;12.530;2022-11-24T09:57:52;5.10;99.90
13426;DHT22;6785;57.918;12.530;2022-11-24T10:00:20;5.10;99.90
13426;DHT22;6785;57.918;12.530;2022-11-24T10:02:48;5.10;99.90
13426;DHT22;6785;57.918;12.530;2022-11-24T10:05:17;5.10;99.90
13426;DHT22;6785;57.918;12.530;2022-11-24T10:07:57;5.10;99.90
13426;DHT22;6785;57.918;12.530;2022-11-24T10:10:33;5.10;99.90
13426;DHT22;6785;57.918;12.530;2022-11-24T10:13:16;5.20;99.90
13426;DHT22;6785;57.918;12.530;2022-11-24T10:15:55;5.20;99.90
13426;DHT22;6785;57.918;12.530;2022-11-24T10:18:36;5.20;99.90
13426;DHT22;6785;57.918;12.530;2022-11-24T10:24:12;5.30;99.90
13426;DHT22;6785;57.918;12.530;2022-11-24T10:26:44;5.30;99.90
13426;DHT22;6785;57.918;12.530;2022-11-24T10:29:19;5.30;99.90
13426;DHT22;6785;57.918;12.530;2022-11-24T10:31:52;5.40;99.90
13426;DHT22;6785;57.918;12.530;2022-11-24T10:34:25;5.40;99.90
13426;DHT22;6785;57.918;12.530;2022-11-24T10:36:57;5.40;99.90
13426;DHT22;6785;57.918;12.530;2022-11-24T10:39:31;5.40;99.90
13426;DHT22;6785;57.918;12.530;2022-11-24T10:42:04;5.40;99.90
13426;DHT22;6785;57.918;12.530;2022-11-24T10:44:33;5.30;99.90
13426;DHT22;6785;57.918;12.530;2022-11-24T10:46:59;5.30;99.90
13426;DHT22;6785;57.918;12.530;2022-11-24T10:49:29;5.20;99.90
13426;DHT22;6785;57.918;12.530;2022-11-24T10:52:05;5.20;99.90
13426;DHT22;6785;57.918;12.530;2022-11-24T10:54:34;5.10;99.90
13426;DHT22;6785;57.918;12.530;2022-11-24T10:57:01;5.10;99.90
13426;DHT22;6785;57.918;12.530;2022-11-24T10:59:34;5.20;99.90
13426;DHT22;6785;57.918;12.530;2022-11-24T11:02:02;5.20;99.90
13426;DHT22;6785;57.918;12.530;2022-11-24T11:04:30;5.30;99.90
13426;DHT22;6785;57.918;12.530;2022-11-24T11:07:17;5.30;99.90
13426;DHT22;6785;57.918;12.530;2022-11-24T11:09:46;5.30;99.90
13426;DHT22;6785;57.918;12.530;2022-11-24T11:12:19;5.40;99.90
13426;DHT22;6785;57.918;12.530;2022-11-24T11:14:46;5.30;99.90
13426;DHT22;6785;57.918;12.530;2022-11-24T11:17:32;5.30;99.90
13426;DHT22;6785;57.918;12.530;2022-11-24T11:20:04;5.30;99.90
13426;DHT22;6785;57.918;12.530;2022-11-24T11:22:35;5.30;99.90
13426;DHT22;6785;57.918;12.530;2022-11-24T11:25:06;5.30;99.90
13426;DHT22;6785;57.918;12.530;2022-11-24T11:27:41;5.30;99.90
13426;DHT22;6785;57.918;12.530;2022-11-24T11:30:17;5.30;99.90
13426;DHT22;6785;57.918;12.530;2022-11-24T11:32:51;5.40;99.90
13426;DHT22;6785;57.918;12.530;2022-11-24T11:35:20;5.40;99.90
13426;DHT22;6785;57.918;12.530;2022-11-24T11:37:48;5.40;99.90
13426;DHT22;6785;57.918;12.530;2022-11-24T11:40:26;5.40;99.90
13426;DHT22;6785;57.918;12.530;2022-11-24T11:42:58;5.40;99.90
13426;DHT22;6785;57.918;12.530;2022-11-24T11:45:28;5.50;99.90
13426;DHT22;6785;57.918;12.530;2022-11-24T11:48:07;5.60;99.90
13426;DHT22;6785;57.918;12.530;2022-11-24T11:50:42;5.60;99.90
13426;DHT22;6785;57.918;12.530;2022-11-24T11:53:18;5.60;99.90
13426;DHT22;6785;57.918;12.530;2022-11-24T11:56:06;5.60;99.90
13426;DHT22;6785;57.918;12.530;2022-11-24T12:01:53;5.60;99.90
13426;DHT22;6785;57.918;12.530;2022-11-24T12:04:34;5.60;99.90
13426;DHT22;6785;57.918;12.530;2022-11-24T12:10:02;5.60;99.90
13426;DHT22;6785;57.918;12.530;2022-11-24T12:15:30;5.60;99.90
13426;DHT22;6785;57.918;12.530;2022-11-24T12:18:08;5.60;99.90
13426;DHT22;6785;57.918;12.530;2022-11-24T12:20:46;5.60;99.90
13426;DHT22;6785;57.918;12.530;2022-11-24T12:23:21;5.60;99.90
13426;DHT22;6785;57.918;12.530;2022-11-24T12:25:58;5.60;99.90
13426;DHT22;6785;57.918;12.530;2022-11-24T12:28:33;5.60;99.90
13426;DHT22;6785;57.918;12.530;2022-11-24T12:31:04;5.60;99.90
13426;DHT22;6785;57.918;12.530;2022-11-24T12:36:48;5.60;99.90
13426;DHT22;6785;57.918;12.530;2022-11-24T12:39:24;5.60;99.90
13426;DHT22;6785;57.918;12.530;2022-11-24T12:42:02;5.60;99.90
13426;DHT22;6785;57.918;12.530;2022-11-24T12:44:44;5.60;99.90
13426;DHT22;6785;57.918;12.530;2022-11-24T12:47:19;5.60;99.90
13426;DHT22;6785;57.918;12.530;2022-11-24T12:49:56;5.60;99.90
13426;DHT22;6785;57.918;12.530;2022-11-24T12:52:30;5.60;99.90
13426;DHT22;6785;57.918;12.530;2022-11-24T12:54:59;5.60;99.90
13426;DHT22;6785;57.918;12.530;2022-11-24T12:57:31;5.50;99.90
13426;DHT22;6785;57.918;12.530;2022-11-24T13:00:02;5.50;99.90
13426;DHT22;6785;57.918;12.530;2022-11-24T13:02:40;5.50;99.90
13426;DHT22;6785;57.918;12.530;2022-11-24T13:05:20;5.50;99.90
13426;DHT22;6785;57.918;12.530;2022-11-24T13:07:53;5.40;99.90
13426;DHT22;6785;57.918;12.530;2022-11-24T13:10:27;5.40;99.90
13426;DHT22;6785;57.918;12.530;2022-11-24T13:12:56;5.30;99.90
13426;DHT22;6785;57.918;12.530;2022-11-24T13:15:24;5.30;99.90
13426;DHT22;6785;57.918;12.530;2022-11-24T13:17:51;5.30;99.90
13426;DHT22;6785;57.918;12.530;2022-11-24T13:20:23;5.30;99.90
13426;DHT22;6785;57.918;12.530;2022-11-24T13:22:52;5.30;99.90
13426;DHT22;6785;57.918;12.530;2022-11-24T13:25:20;5.20;99.90
13426;DHT22;6785;57.918;12.530;2022-11-24T13:27:49;5.20;99.90
13426;DHT22;6785;57.918;12.530;2022-11-24T13:31:06;5.20;99.90
13426;DHT22;6785;57.918;12.530;2022-11-24T13:33:36;5.20;99.90
13426;DHT22;6785;57.918;12.530;2022-11-24T13:36:28;5.20;99.90
13426;DHT22;6785;57.918;12.530;2022-11-24T13:38:55;5.20;99.90
13426;DHT22;6785;57.918;12.530;2022-11-24T13:44:57;5.20;99.90
13426;DHT22;6785;57.918;12.530;2022-11-24T13:47:40;5.20;99.90
13426;DHT22;6785;57.918;12.530;2022-11-24T13:50:11;5.20;99.90
13426;DHT22;6785;57.918;12.530;2022-11-24T13:52:42;5.20;99.90
13426;DHT22;6785;57.918;12.530;2022-11-24T13:55:26;5.20;99.90
13426;DHT22;6785;57.918;12.530;2022-11-24T13:57:57;5.20;99.90
13426;DHT22;6785;57.918;12.530;2022-11-24T14:00:27;5.20;99.90
13426;DHT22;6785;57.918;12.530;2022-11-24T14:02:58;5.20;99.90
13426;DHT22;6785;57.918;12.530;2022-11-24T14:05:35;5.20;99.90
13426;DHT22;6785;57.918;12.530;2022-11-24T14:08:04;5.20;99.90
13426;DHT22;6785;57.918;12.530;2022-11-24T14:10:34;5.20;99.90
13426;DHT22;6785;57.918;12.530;2022-11-24T14:13:27;5.20;99.90
13426;DHT22;6785;57.918;12.530;2022-11-24T14:16:02;5.20;99.90
13426;DHT22;6785;57.918;12.530;2022-11-24T14:18:31;5.20;99.90
13426;DHT22;6785;57.918;12.530;2022-11-24T14:21:00;5.20;99.90
13426;DHT22;6785;57.918;12.530;2022-11-24T14:23:40;5.20;99.90
13426;DHT22;6785;57.918;12.530;2022-11-24T14:26:16;5.20;99.90
13426;DHT22;6785;57.918;12.530;2022-11-24T14:28:44;5.20;99.90
13426;DHT22;6785;57.918;12.530;2022-11-24T14:31:19;5.20;99.90
13426;DHT22;6785;57.918;12.530;2022-11-24T14:33:48;5.20;99.90
13426;DHT22;6785;57.918;12.530;2022-11-24T14:36:15;5.20;99.90
13426;DHT22;6785;57.918;12.530;2022-11-24T14:38:43;5.20;99.90
13426;DHT22;6785;57.918;12.530;2022-11-24T14:41:17;5.20;99.90
13426;DHT22;6785;57.918;12.530;2022-11-24T14:43:47;5.10;99.90
13426;DHT22;6785;57.918;12.530;2022-11-24T14:46:17;5.10;99.90
13426;DHT22;6785;57.918;12.530;2022-11-24T14:48:48;5.20;99.90
13426;DHT22;6785;57.918;12.530;2022-11-24T14:51:19;5.20;99.90
13426;DHT22;6785;57.918;12.530;2022-11-24T14:53:50;5.20;99.90
13426;DHT22;6785;57.918;12.530;2022-11-24T14:56:23;5.20;99.90
13426;DHT22;6785;57.918;12.530;2022-11-24T14:58:50;5.10;99.90
13426;DHT22;6785;57.918;12.530;2022-11-24T15:01:20;5.20;99.90
13426;DHT22;6785;57.918;12.530;2022-11-24T15:04:17;5.10;99.90
13426;DHT22;6785;57.918;12.530;2022-11-24T15:06:45;5.20;99.90
13426;DHT22;6785;57.918;12.530;2022-11-24T15:09:25;5.20;99.90
13426;DHT22;6785;57.918;12.530;2022-11-24T15:11:53;5.20;99.90
13426;DHT22;6785;57.918;12.530;2022-11-24T15:14:42;5.20;99.90
13426;DHT22;6785;57.918;12.530;2022-11-24T15:17:16;5.10;99.90
13426;DHT22;6785;57.918;12.530;2022-11-24T15:19:47;5.20;99.90
13426;DHT22;6785;57.918;12.530;2022-11-24T15:22:36;5.20;99.90
13426;DHT22;6785;57.918;12.530;2022-11-24T15:25:29;5.20;99.90
13426;DHT22;6785;57.918;12.530;2022-11-24T15:27:56;5.20;99.90
13426;DHT22;6785;57.918;12.530;2022-11-24T15:30:23;5.20;99.90
13426;DHT22;6785;57.918;12.530;2022-11-24T15:32:51;5.10;99.90
13426;DHT22;6785;57.918;12.530;2022-11-24T15:35:20;5.10;99.90
13426;DHT22;6785;57.918;12.530;2022-11-24T15:37:47;5.10;99.90
13426;DHT22;6785;57.918;12.530;2022-11-24T15:40:14;5.20;99.90
13426;DHT22;6785;57.918;12.530;2022-11-24T15:42:50;5.10;99.90
13426;DHT22;6785;57.918;12.530;2022-11-24T15:45:18;5.10;99.90
13426;DHT22;6785;57.918;12.530;2022-11-24T15:47:44;5.20;99.90
13426;DHT22;6785;57.918;12.530;2022-11-24T15:50:12;5.20;99.90
13426;DHT22;6785;57.918;12.530;2022-11-24T15:52:41;5.20;99.90
13426;DHT22;6785;57.918;12.530;2022-11-24T15:55:15;5.20;99.90
13426;DHT22;6785;57.918;12.530;2022-11-24T15:57:43;5.20;99.90
13426;DHT22;6785;57.918;12.530;2022-11-24T16:00:14;5.20;99.90
13426;DHT22;6785;57.918;12.530;2022-11-24T16:02:41;5.20;99.90
13426;DHT22;6785;57.918;12.530;2022-11-24T16:05:08;5.20;99.90
13426;DHT22;6785;57.918;12.530;2022-11-24T16:07:35;5.20;99.90
13426;DHT22;6785;57.918;12.530;2022-11-24T16:10:04;5.20;99.90
13426;DHT22;6785;57.918;12.530;2022-11-24T16:12:31;5.20;99.90
13426;DHT22;6785;57.918;12.530;2022-11-24T16:14:58;5.20;99.90
13426;DHT22;6785;57.918;12.530;2022-11-24T16:17:25;5.20;99.90
13426;DHT22;6785;57.918;12.530;2022-11-24T16:19:51;5.20;99.90